Time;durP1;ratioP1;P1;durP2;ratioP2;P2;SDS_P1;SDS_P2;PMS_P1;PMS_P2;Temp;Humidity;BMP_temperature;BMP_pressure;BME280_temperature;BME280_humidity;BME280_pressure;Samples;Min_cycle;Max_cycle;Signal;HPM_P1;HPM_P2
2022/03/24 00:00:24;;;;;;;8.02;4.55;;;3.10;99.90;;;;;;5090482;28;20155;-72
2022/03/24 00:02:50;;;;;;;7.55;4.60;;;3.10;99.90;;;;;;5090157;28;20180;-71
2022/03/24 00:05:17;;;;;;;13.98;4.70;;;3.00;99.90;;;;;;5090287;28;20195;-71
2022/03/24 00:07:43;;;;;;;7.88;5.30;;;2.90;99.90;;;;;;5090100;28;20168;-71
2022/03/24 00:10:10;;;;;;;6.80;4.55;;;2.90;99.90;;;;;;5090048;28;20684;-71
2022/03/24 00:12:39;;;;;;;12.40;5.18;;;2.90;99.90;;;;;;5090117;28;20186;-71
2022/03/24 00:15:06;;;;;;;7.47;3.95;;;2.90;99.90;;;;;;5089443;28;20250;-71
2022/03/24 00:17:33;;;;;;;7.53;4.57;;;2.80;99.90;;;;;;5072172;28;20164;-72
2022/03/24 00:19:59;;;;;;;6.53;4.35;;;2.80;99.90;;;;;;5089919;28;20156;-72
2022/03/24 00:22:26;;;;;;;15.00;4.95;;;2.80;99.90;;;;;;5089940;28;20160;-72
2022/03/24 00:25:01;;;;;;;5.30;3.83;;;2.70;99.90;;;;;;5089803;28;20324;-72
2022/03/24 00:27:27;;;;;;;12.93;4.57;;;2.70;99.90;;;;;;5089849;28;20160;-71
2022/03/24 00:29:53;;;;;;;10.65;4.85;;;2.60;99.90;;;;;;5089709;28;20175;-71
2022/03/24 00:32:19;;;;;;;10.02;4.40;;;2.60;99.90;;;;;;5089671;28;20168;-71
2022/03/24 00:34:45;;;;;;;8.02;4.50;;;2.50;99.90;;;;;;5089531;28;20730;-71
2022/03/24 00:37:11;;;;;;;7.22;4.85;;;2.50;99.90;;;;;;5089629;28;20182;-71
2022/03/24 00:39:37;;;;;;;9.48;4.60;;;2.50;99.90;;;;;;5089545;28;20229;-71
2022/03/24 00:42:11;;;;;;;10.38;4.38;;;2.50;99.90;;;;;;5089605;28;20164;-71
2022/03/24 00:44:42;;;;;;;7.38;4.10;;;2.50;99.90;;;;;;5089496;28;20416;-72
2022/03/24 00:47:10;;;;;;;7.18;4.82;;;2.40;99.90;;;;;;5089579;28;20191;-71
2022/03/24 00:49:37;;;;;;;11.10;5.00;;;2.30;99.90;;;;;;5089360;28;20183;-71
2022/03/24 00:52:03;;;;;;;9.23;4.13;;;2.20;99.90;;;;;;5089329;28;20227;-72
2022/03/24 00:54:29;;;;;;;7.15;4.05;;;2.10;99.90;;;;;;5089312;28;20211;-72
2022/03/24 00:56:55;;;;;;;8.50;5.00;;;2.20;99.90;;;;;;5089392;28;20191;-72
2022/03/24 00:59:22;;;;;;;10.75;4.68;;;2.20;99.90;;;;;;5089007;28;20222;-72
2022/03/24 01:01:49;;;;;;;11.00;4.32;;;2.10;99.90;;;;;;5089283;28;20252;-72
2022/03/24 01:04:15;;;;;;;7.80;3.95;;;2.10;99.90;;;;;;5089068;28;20198;-71
2022/03/24 01:06:43;;;;;;;9.18;4.43;;;2.10;99.90;;;;;;5089123;28;20219;-71
2022/03/24 01:09:09;;;;;;;6.22;3.97;;;2.00;99.90;;;;;;5089036;28;20195;-71
2022/03/24 01:11:34;;;;;;;10.35;4.50;;;2.00;99.90;;;;;;5089097;28;20209;-71
2022/03/24 01:14:01;;;;;;;9.13;5.25;;;2.00;99.90;;;;;;5088956;28;20175;-72
2022/03/24 01:16:27;;;;;;;9.27;4.47;;;1.90;99.90;;;;;;5089073;28;20152;-71
2022/03/24 01:18:53;;;;;;;8.43;4.22;;;1.80;99.90;;;;;;5089069;28;20186;-72
2022/03/24 01:21:19;;;;;;;9.77;4.53;;;1.80;99.90;;;;;;5088890;28;20156;-72
2022/03/24 01:23:46;;;;;;;6.60;4.20;;;1.70;99.90;;;;;;5088951;28;20164;-71
2022/03/24 01:26:13;;;;;;;6.78;4.07;;;1.70;99.90;;;;;;5070050;28;20196;-71
2022/03/24 01:28:41;;;;;;;8.05;4.93;;;1.80;99.90;;;;;;5088832;28;20199;-72
2022/03/24 01:31:08;;;;;;;8.50;4.75;;;1.80;99.90;;;;;;5088942;28;20223;-71
2022/03/24 01:33:37;;;;;;;14.20;4.88;;;1.80;99.90;;;;;;5088733;28;20661;-71
2022/03/24 01:36:05;;;;;;;7.32;4.60;;;1.70;99.90;;;;;;5088708;28;20251;-71
2022/03/24 01:38:32;;;;;;;7.18;3.92;;;1.70;99.90;;;;;;5088834;28;20660;-71
2022/03/24 01:40:58;;;;;;;6.07;4.13;;;1.70;99.90;;;;;;5088815;28;20248;-72
2022/03/24 01:43:25;;;;;;;10.45;4.93;;;1.60;99.90;;;;;;5088848;28;20617;-71
2022/03/24 01:45:51;;;;;;;12.32;5.22;;;1.60;99.90;;;;;;5088741;28;20188;-71
2022/03/24 01:48:17;;;;;;;8.35;4.03;;;1.50;99.90;;;;;;5088782;28;20171;-71
2022/03/24 01:50:44;;;;;;;8.15;4.10;;;1.50;99.90;;;;;;5088744;28;20195;-72
2022/03/24 01:53:12;;;;;;;8.88;4.68;;;1.50;99.90;;;;;;5088495;28;20218;-71
2022/03/24 01:55:40;;;;;;;9.35;4.70;;;1.50;99.90;;;;;;5072914;28;20196;-72
2022/03/24 01:58:07;;;;;;;8.27;5.05;;;1.50;99.90;;;;;;5068263;28;20216;-71
2022/03/24 02:00:34;;;;;;;8.98;5.00;;;1.40;99.90;;;;;;5068391;28;20192;-71
2022/03/24 02:03:03;;;;;;;10.57;4.88;;;1.40;99.90;;;;;;5068041;28;20157;-71
2022/03/24 02:05:34;;;;;;;14.55;5.22;;;1.20;99.90;;;;;;5068424;28;20193;-71
2022/03/24 02:08:03;;;;;;;9.07;5.20;;;1.30;99.90;;;;;;5068550;28;20176;-72
2022/03/24 02:10:32;;;;;;;5.50;4.30;;;1.30;99.90;;;;;;5068619;28;20547;-72
2022/03/24 02:12:58;;;;;;;10.85;4.95;;;1.30;99.90;;;;;;5050379;28;20180;-72
2022/03/24 02:15:26;;;;;;;10.55;5.32;;;1.30;99.90;;;;;;5068369;28;20193;-71
2022/03/24 02:17:53;;;;;;;7.53;4.30;;;1.30;99.90;;;;;;5068408;28;20153;-71
2022/03/24 02:20:23;;;;;;;10.13;5.13;;;1.20;99.90;;;;;;5068330;28;20205;-71
2022/03/24 02:22:49;;;;;;;7.35;4.72;;;1.20;99.90;;;;;;5068240;28;20160;-71
2022/03/24 02:25:16;;;;;;;11.50;4.78;;;1.20;99.90;;;;;;5068174;28;20203;-72
2022/03/24 02:27:47;;;;;;;8.50;4.78;;;1.20;99.90;;;;;;5068319;28;20199;-71
2022/03/24 02:30:13;;;;;;;9.40;4.70;;;1.10;99.90;;;;;;5068154;28;20168;-71
2022/03/24 02:32:40;;;;;;;7.97;4.63;;;1.10;99.90;;;;;;5068208;28;20157;-71
2022/03/24 02:35:07;;;;;;;9.40;5.07;;;1.00;99.90;;;;;;5068061;28;20302;-71
2022/03/24 02:37:33;;;;;;;11.45;4.15;;;0.90;99.90;;;;;;5069812;28;20191;-71
2022/03/24 02:40:00;;;;;;;10.98;4.63;;;1.00;99.90;;;;;;5071818;28;20161;-71
2022/03/24 02:42:30;;;;;;;7.55;4.75;;;0.90;99.90;;;;;;5071798;28;20161;-71
2022/03/24 02:45:00;;;;;;;8.50;4.00;;;1.00;99.90;;;;;;5071620;28;20204;-71
2022/03/24 02:47:27;;;;;;;16.33;5.75;;;1.00;99.90;;;;;;5071755;28;20554;-71
2022/03/24 02:49:55;;;;;;;18.67;6.35;;;1.00;99.90;;;;;;5071657;28;20538;-71
2022/03/24 02:52:21;;;;;;;14.52;6.90;;;1.10;99.90;;;;;;5071494;28;20221;-71
2022/03/24 02:54:47;;;;;;;20.45;7.30;;;1.10;99.90;;;;;;5071480;28;20192;-71
2022/03/24 02:57:14;;;;;;;13.48;7.28;;;1.20;99.90;;;;;;5071525;28;20175;-71
2022/03/24 02:59:41;;;;;;;12.55;6.40;;;1.20;99.90;;;;;;5071265;28;20252;-71
2022/03/24 03:02:18;;;;;;;11.57;6.57;;;1.30;99.90;;;;;;5071403;28;20618;-72
2022/03/24 03:04:51;;;;;;;12.30;6.28;;;1.20;99.90;;;;;;5071152;28;20212;-71
2022/03/24 03:07:17;;;;;;;13.52;6.43;;;1.20;99.90;;;;;;5071436;28;20597;-72
2022/03/24 03:09:43;;;;;;;14.05;7.03;;;1.10;99.90;;;;;;5071251;28;20220;-71
2022/03/24 03:12:10;;;;;;;21.60;6.70;;;0.90;99.90;;;;;;5071180;28;20161;-71
2022/03/24 03:14:37;;;;;;;12.90;6.32;;;0.90;99.90;;;;;;5070990;28;20222;-71
2022/03/24 03:17:03;;;;;;;14.93;6.22;;;0.90;99.90;;;;;;5071174;28;20167;-71
2022/03/24 03:19:29;;;;;;;12.75;6.07;;;0.90;99.90;;;;;;5071029;28;20181;-71
2022/03/24 03:21:56;;;;;;;10.00;6.18;;;0.80;99.90;;;;;;5071086;28;20272;-71
2022/03/24 03:24:23;;;;;;;11.10;5.28;;;0.70;99.90;;;;;;5070889;28;20188;-72
2022/03/24 03:26:52;;;;;;;12.68;7.55;;;0.60;99.90;;;;;;5070773;28;20241;-71
2022/03/24 03:29:19;;;;;;;15.95;5.43;;;0.60;99.90;;;;;;5070776;28;20164;-71
2022/03/24 03:31:45;;;;;;;12.93;6.47;;;0.60;99.90;;;;;;5070753;28;20153;-71
2022/03/24 03:34:11;;;;;;;19.58;5.97;;;0.50;99.90;;;;;;5052780;28;20169;-72
2022/03/24 03:36:38;;;;;;;16.58;5.97;;;0.60;99.90;;;;;;5052864;28;20202;-71
2022/03/24 03:39:07;;;;;;;12.85;6.00;;;0.60;99.90;;;;;;5070717;28;20164;-71
2022/03/24 03:41:35;;;;;;;21.08;5.72;;;0.60;99.90;;;;;;5070614;28;20167;-71
2022/03/24 03:44:02;;;;;;;11.32;5.50;;;0.50;99.90;;;;;;5070644;28;20200;-71
2022/03/24 03:46:28;;;;;;;12.52;5.75;;;0.60;99.90;;;;;;5070464;28;20193;-72
2022/03/24 03:48:54;;;;;;;15.40;6.15;;;0.50;99.90;;;;;;5069824;28;20630;-71
2022/03/24 03:51:20;;;;;;;13.95;6.15;;;0.50;99.90;;;;;;5070621;28;20169;-71
2022/03/24 03:53:46;;;;;;;11.43;5.90;;;0.40;99.90;;;;;;5070662;28;20285;-71
2022/03/24 03:56:15;;;;;;;12.55;6.75;;;0.30;99.90;;;;;;5070298;28;20203;-71
2022/03/24 03:58:41;;;;;;;10.80;4.95;;;0.20;99.90;;;;;;5070145;28;20235;-71
2022/03/24 04:01:08;;;;;;;12.73;5.72;;;0.30;99.90;;;;;;5070402;28;20161;-71
2022/03/24 04:03:36;;;;;;;10.07;5.60;;;0.20;99.90;;;;;;5070402;28;20196;-72
2022/03/24 04:06:11;;;;;;;11.30;5.05;;;0.30;99.90;;;;;;5070200;28;20185;-71
2022/03/24 04:08:38;;;;;;;13.25;5.50;;;0.40;99.90;;;;;;5070260;28;20157;-71
2022/03/24 04:11:07;;;;;;;10.32;5.53;;;0.30;99.90;;;;;;5070282;28;20164;-71
2022/03/24 04:13:34;;;;;;;8.50;5.30;;;0.30;99.90;;;;;;5070098;28;20157;-71
2022/03/24 04:16:00;;;;;;;12.02;5.97;;;0.30;99.90;;;;;;5070058;28;20185;-71
2022/03/24 04:18:26;;;;;;;15.18;5.85;;;0.20;99.90;;;;;;5070086;28;20153;-71
2022/03/24 04:20:52;;;;;;;14.25;5.75;;;0.20;99.90;;;;;;5070155;28;20172;-71
2022/03/24 04:23:19;;;;;;;12.05;6.65;;;0.20;99.90;;;;;;5051972;28;20223;-71
2022/03/24 04:25:45;;;;;;;11.15;5.85;;;0.30;99.90;;;;;;5069735;28;20287;-71
2022/03/24 04:28:12;;;;;;;13.15;6.03;;;0.20;99.90;;;;;;5069898;28;20165;-71
2022/03/24 04:30:38;;;;;;;9.80;5.15;;;0.20;99.90;;;;;;5069774;28;20161;-71
2022/03/24 04:33:04;;;;;;;20.60;6.00;;;0.10;99.90;;;;;;5069722;28;20165;-71
2022/03/24 04:35:31;;;;;;;15.07;5.55;;;0.10;99.90;;;;;;5069452;28;20565;-71
2022/03/24 04:37:58;;;;;;;11.95;5.35;;;0.20;99.90;;;;;;5069489;28;20245;-71
2022/03/24 04:40:24;;;;;;;13.73;5.80;;;0.10;99.90;;;;;;5069224;28;20164;-71
2022/03/24 04:42:52;;;;;;;9.18;5.18;;;0.20;99.90;;;;;;5069381;28;20153;-71
2022/03/24 04:45:19;;;;;;;16.75;6.93;;;0.10;99.90;;;;;;5069147;28;20204;-71
2022/03/24 04:47:47;;;;;;;16.05;6.25;;;0.20;99.90;;;;;;5069297;28;20157;-71
2022/03/24 04:50:14;;;;;;;15.88;6.40;;;0.20;99.90;;;;;;5069053;28;20153;-71
2022/03/24 04:52:41;;;;;;;16.58;6.65;;;0.10;99.90;;;;;;5069122;28;20153;-71
2022/03/24 04:55:09;;;;;;;11.77;5.57;;;0.20;99.90;;;;;;5069030;28;20268;-71
2022/03/24 04:57:35;;;;;;;22.75;6.47;;;0.30;99.90;;;;;;5068933;28;20169;-71
2022/03/24 05:00:03;;;;;;;16.45;6.47;;;0.20;99.90;;;;;;5068941;28;20530;-71
2022/03/24 05:02:29;;;;;;;21.17;7.10;;;0.10;99.90;;;;;;5069129;28;20165;-71
2022/03/24 05:04:55;;;;;;;15.00;6.68;;;0.10;99.90;;;;;;5069106;28;20208;-71
2022/03/24 05:07:21;;;;;;;12.48;7.00;;;0.20;99.90;;;;;;5069022;28;20169;-71
2022/03/24 05:09:50;;;;;;;13.68;5.80;;;0.20;99.90;;;;;;5069187;28;20748;-71
2022/03/24 05:12:16;;;;;;;13.68;5.68;;;0.20;99.90;;;;;;5068990;28;20195;-71
2022/03/24 05:14:43;;;;;;;16.38;6.28;;;0.20;99.90;;;;;;5068886;28;20221;-72
2022/03/24 05:17:09;;;;;;;13.13;6.45;;;0.30;99.90;;;;;;5069036;28;20215;-72
2022/03/24 05:19:35;;;;;;;13.88;6.18;;;0.30;99.90;;;;;;5068985;28;20168;-71
2022/03/24 05:22:02;;;;;;;13.80;7.30;;;0.40;99.90;;;;;;5074801;28;20191;-72
2022/03/24 05:24:28;;;;;;;27.70;9.23;;;0.50;99.90;;;;;;5088858;28;20283;-71
2022/03/24 05:26:55;;;;;;;15.05;7.97;;;0.70;99.90;;;;;;5088939;28;20156;-70
2022/03/24 05:29:20;;;;;;;23.58;9.75;;;1.10;99.90;;;;;;5088611;28;20247;-70
2022/03/24 05:31:47;;;;;;;19.67;7.55;;;1.40;99.90;;;;;;5070591;28;20503;-70
2022/03/24 05:34:13;;;;;;;28.52;9.52;;;1.90;99.90;;;;;;5088828;28;20164;-72
2022/03/24 05:36:39;;;;;;;21.20;8.85;;;3.00;99.90;;;;;;5088697;28;20226;-72
2022/03/24 05:39:04;;;;;;;22.38;9.00;;;4.00;99.90;;;;;;5088650;28;20156;-71
2022/03/24 05:41:30;;;;;;;34.08;10.88;;;4.50;99.90;;;;;;5070532;28;20253;-72
2022/03/24 05:44:02;;;;;;;33.92;9.63;;;4.40;99.90;;;;;;5088570;28;20188;-71
2022/03/24 05:46:49;;;;;;;16.85;8.15;;;4.50;99.90;;;;;;5088590;28;20198;-70
2022/03/24 05:49:17;;;;;;;21.63;9.38;;;5.30;99.90;;;;;;5088449;28;20167;-70
2022/03/24 05:51:44;;;;;;;19.02;8.05;;;5.60;99.90;;;;;;5088224;28;20164;-70
2022/03/24 05:54:12;;;;;;;22.75;8.77;;;5.90;99.70;;;;;;5088405;28;20172;-71
2022/03/24 05:56:38;;;;;;;23.92;9.30;;;6.50;98.50;;;;;;5088319;28;20239;-73
2022/03/24 05:59:04;;;;;;;20.70;9.10;;;6.00;98.80;;;;;;5088269;28;20227;-72
2022/03/24 06:01:30;;;;;;;20.05;9.15;;;5.30;99.90;;;;;;5070093;28;20231;-72
2022/03/24 06:03:59;;;;;;;21.45;9.00;;;4.80;99.90;;;;;;5088405;28;20195;-72
2022/03/24 06:06:28;;;;;;;14.55;7.15;;;4.70;99.90;;;;;;5088332;28;20690;-72
2022/03/24 06:08:58;;;;;;;16.65;8.25;;;4.40;99.90;;;;;;5088072;28;20160;-72
2022/03/24 06:11:24;;;;;;;16.67;7.35;;;4.40;99.90;;;;;;5070071;28;20196;-71
2022/03/24 06:13:51;;;;;;;14.73;6.82;;;4.30;99.90;;;;;;5092091;28;20168;-71
2022/03/24 06:16:18;;;;;;;13.80;7.70;;;4.30;99.90;;;;;;5092125;28;20164;-72
2022/03/24 06:18:44;;;;;;;19.30;8.00;;;4.40;99.90;;;;;;5091758;28;20164;-71
2022/03/24 06:21:10;;;;;;;17.23;8.40;;;4.50;99.90;;;;;;5092068;28;20190;-72
2022/03/24 06:23:37;;;;;;;14.25;6.63;;;4.60;99.90;;;;;;5091723;28;20183;-72
2022/03/24 06:26:03;;;;;;;16.60;7.80;;;4.80;99.90;;;;;;5091868;28;20184;-71
2022/03/24 06:28:29;;;;;;;17.00;7.28;;;4.90;99.90;;;;;;5091787;28;20168;-72
2022/03/24 06:30:56;;;;;;;25.13;8.70;;;5.10;99.90;;;;;;5091765;28;20270;-71
2022/03/24 06:33:21;;;;;;;23.45;9.18;;;5.30;99.90;;;;;;5073782;28;20172;-73
2022/03/24 06:35:48;;;;;;;19.20;9.55;;;5.40;99.90;;;;;;5073290;28;20201;-72
2022/03/24 06:38:17;;;;;;;19.75;8.02;;;5.60;99.90;;;;;;5091678;28;20218;-71
2022/03/24 06:40:43;;;;;;;22.75;9.70;;;6.00;99.90;;;;;;5091558;28;20206;-72
2022/03/24 06:43:09;;;;;;;21.58;8.85;;;6.50;99.90;;;;;;5091152;28;20164;-71
2022/03/24 06:45:37;;;;;;;17.65;8.45;;;6.70;99.50;;;;;;5091289;28;20160;-71
2022/03/24 06:48:07;;;;;;;20.17;9.30;;;6.80;99.60;;;;;;5091673;28;20608;-71
2022/03/24 06:50:33;;;;;;;23.98;8.68;;;8.10;98.20;;;;;;5091503;28;20145;-71
2022/03/24 06:52:59;;;;;;;17.23;7.30;;;8.30;96.90;;;;;;5091342;28;20182;-71
2022/03/24 06:55:25;;;;;;;18.80;8.38;;;7.90;97.00;;;;;;5091273;28;20168;-71
2022/03/24 06:57:51;;;;;;;18.05;8.50;;;7.70;97.90;;;;;;5091113;28;20234;-71
2022/03/24 07:00:17;;;;;;;17.67;8.40;;;7.70;98.20;;;;;;5091130;28;20215;-71
2022/03/24 07:02:45;;;;;;;23.50;8.48;;;8.00;97.80;;;;;;5091101;28;20188;-71
2022/03/24 07:05:13;;;;;;;16.70;8.55;;;10.40;95.10;;;;;;5091120;28;20247;-71
2022/03/24 07:07:40;;;;;;;20.10;7.20;;;13.40;91.30;;;;;;5091099;28;20220;-71
2022/03/24 07:10:08;;;;;;;16.83;7.22;;;15.60;85.50;;;;;;5091405;28;20153;-72
2022/03/24 07:12:34;;;;;;;16.23;8.00;;;15.00;85.30;;;;;;5091039;28;20210;-72
2022/03/24 07:15:02;;;;;;;15.73;8.25;;;13.30;88.60;;;;;;5091149;28;20159;-71
2022/03/24 07:17:28;;;;;;;25.33;9.20;;;12.30;90.40;;;;;;5091263;28;20637;-72
2022/03/24 07:19:54;;;;;;;20.10;9.40;;;12.50;90.60;;;;;;5090867;28;20163;-72
2022/03/24 07:22:20;;;;;;;17.40;7.68;;;11.80;91.70;;;;;;5072956;28;20200;-72
2022/03/24 07:24:46;;;;;;;14.95;7.00;;;11.00;92.70;;;;;;5089676;28;20223;-72
2022/03/24 07:27:14;;;;;;;17.13;6.88;;;11.50;91.90;;;;;;5090815;28;20527;-73
2022/03/24 07:29:41;;;;;;;18.70;6.63;;;11.60;91.60;;;;;;5091019;28;20164;-73
2022/03/24 07:32:08;;;;;;;15.23;6.28;;;11.20;91.80;;;;;;5090776;28;20196;-72
2022/03/24 07:34:35;;;;;;;13.10;6.45;;;10.80;92.90;;;;;;5090815;28;20507;-71
2022/03/24 07:37:04;;;;;;;10.35;5.57;;;10.80;92.50;;;;;;5072619;28;20202;-72
2022/03/24 07:39:31;;;;;;;10.90;5.55;;;11.30;91.80;;;;;;5090650;28;20247;-72
2022/03/24 07:41:57;;;;;;;10.88;6.18;;;12.40;90.50;;;;;;5090761;28;20191;-72
2022/03/24 07:44:23;;;;;;;13.85;5.75;;;14.30;86.20;;;;;;5090442;28;20202;-72
2022/03/24 07:46:49;;;;;;;13.20;5.65;;;14.70;85.60;;;;;;5090641;28;20175;-72
2022/03/24 07:49:15;;;;;;;11.80;5.60;;;15.40;84.50;;;;;;5090617;28;20220;-73
2022/03/24 07:51:42;;;;;;;12.52;6.22;;;16.80;81.70;;;;;;5090468;28;20199;-73
2022/03/24 07:54:10;;;;;;;17.27;5.95;;;17.60;79.90;;;;;;5090641;28;20255;-72
2022/03/24 07:56:38;;;;;;;15.98;5.60;;;18.60;78.80;;;;;;5090670;28;20561;-73
2022/03/24 07:59:05;;;;;;;15.00;5.40;;;19.10;76.80;;;;;;5090366;28;20287;-73
2022/03/24 08:01:33;;;;;;;12.10;5.57;;;19.50;75.40;;;;;;5090494;28;20160;-72
2022/03/24 08:04:02;;;;;;;12.38;5.95;;;19.50;75.70;;;;;;5072300;28;20225;-72
2022/03/24 08:06:29;;;;;;;8.60;5.85;;;19.70;74.10;;;;;;5090532;28;20160;-72
2022/03/24 08:08:56;;;;;;;9.02;5.72;;;20.30;72.00;;;;;;5090004;28;20191;-72
2022/03/24 08:11:22;;;;;;;11.38;5.38;;;20.10;73.00;;;;;;5090233;28;20156;-72
2022/03/24 08:13:53;;;;;;;12.48;4.80;;;20.10;72.20;;;;;;5072206;28;20164;-72
2022/03/24 08:16:21;;;;;;;11.43;5.20;;;20.70;71.30;;;;;;5090019;28;20152;-72
2022/03/24 08:18:47;;;;;;;11.02;5.30;;;21.70;70.40;;;;;;5089937;28;20555;-72
2022/03/24 08:21:13;;;;;;;9.48;5.70;;;22.30;68.60;;;;;;5089938;28;20160;-72
2022/03/24 08:23:39;;;;;;;13.32;5.72;;;22.00;68.50;;;;;;5089913;28;20238;-72
2022/03/24 08:26:05;;;;;;;11.95;5.32;;;20.90;70.50;;;;;;5090045;28;20190;-72
2022/03/24 08:28:32;;;;;;;12.90;6.07;;;22.00;70.60;;;;;;5089887;28;20680;-72
2022/03/24 08:30:58;;;;;;;11.63;5.53;;;22.00;68.80;;;;;;5089830;28;20168;-71
2022/03/24 08:33:24;;;;;;;12.38;6.03;;;21.70;70.40;;;;;;5089726;28;20160;-72
2022/03/24 08:35:50;;;;;;;11.50;5.40;;;21.90;70.00;;;;;;5089277;28;20148;-72
2022/03/24 08:38:16;;;;;;;9.40;6.47;;;22.10;69.90;;;;;;5089342;28;20188;-72
2022/03/24 08:40:42;;;;;;;14.60;5.15;;;22.40;68.10;;;;;;5089773;28;20164;-71
2022/03/24 08:43:08;;;;;;;13.05;5.40;;;22.30;68.20;;;;;;5089921;28;20160;-72
2022/03/24 08:45:37;;;;;;;10.38;5.55;;;23.40;65.50;;;;;;5089681;28;20176;-72
2022/03/24 08:48:05;;;;;;;13.50;5.43;;;23.50;67.10;;;;;;5089434;28;20187;-73
2022/03/24 08:50:31;;;;;;;16.50;5.28;;;22.80;67.90;;;;;;5089621;28;20227;-72
2022/03/24 08:52:58;;;;;;;10.13;5.82;;;23.00;66.70;;;;;;5089560;28;20155;-72
2022/03/24 08:55:24;;;;;;;11.52;5.25;;;22.80;66.80;;;;;;5089420;28;20645;-72
2022/03/24 08:57:50;;;;;;;12.13;4.95;;;22.70;66.20;;;;;;5088933;28;20245;-73
2022/03/24 09:00:17;;;;;;;10.85;5.07;;;23.20;66.00;;;;;;5089512;28;20166;-73
2022/03/24 09:02:48;;;;;;;13.20;5.25;;;22.90;65.30;;;;;;5087438;28;20170;-72
2022/03/24 09:05:18;;;;;;;9.35;6.22;;;23.50;64.50;;;;;;5069462;28;20715;-73
2022/03/24 09:07:45;;;;;;;9.63;4.80;;;23.20;66.90;;;;;;5050696;28;20239;-73
2022/03/24 09:10:12;;;;;;;9.73;4.57;;;23.40;65.60;;;;;;5068026;28;20161;-72
2022/03/24 09:12:40;;;;;;;11.70;5.45;;;23.90;63.30;;;;;;5068108;28;20172;-73
2022/03/24 09:15:08;;;;;;;11.20;4.30;;;24.40;62.30;;;;;;5067670;28;20203;-72
2022/03/24 09:17:36;;;;;;;6.35;4.65;;;24.70;62.70;;;;;;5069033;28;20252;-72
2022/03/24 09:20:04;;;;;;;6.85;4.28;;;24.40;62.00;;;;;;5069133;28;20220;-72
2022/03/24 09:22:30;;;;;;;8.02;4.47;;;24.60;60.90;;;;;;5069154;28;20186;-73
2022/03/24 09:24:57;;;;;;;8.18;4.45;;;24.50;60.30;;;;;;5068973;28;20215;-72
2022/03/24 09:27:23;;;;;;;9.15;4.88;;;24.30;61.00;;;;;;5068924;28;20164;-72
2022/03/24 09:29:52;;;;;;;6.78;3.85;;;23.90;60.80;;;;;;5068964;28;20180;-72
2022/03/24 09:32:19;;;;;;;13.05;4.60;;;24.00;61.50;;;;;;5069040;28;20168;-73
2022/03/24 09:34:45;;;;;;;11.05;4.50;;;24.40;60.80;;;;;;5068817;28;20206;-72
2022/03/24 09:37:13;;;;;;;11.85;5.63;;;24.90;60.50;;;;;;5069110;28;20199;-72
2022/03/24 09:39:40;;;;;;;9.73;4.85;;;25.70;59.30;;;;;;5068895;28;20160;-73
2022/03/24 09:42:06;;;;;;;8.40;4.13;;;26.50;59.00;;;;;;5069034;28;20161;-72
2022/03/24 09:44:34;;;;;;;12.55;3.58;;;26.50;59.30;;;;;;5068948;28;20156;-72
2022/03/24 09:46:59;;;;;;;9.82;3.60;;;25.70;58.40;;;;;;5069517;28;20207;-71
2022/03/24 09:49:25;;;;;;;5.47;3.75;;;25.60;58.30;;;;;;5072952;28;20164;-72
2022/03/24 09:51:51;;;;;;;6.70;3.42;;;24.90;58.50;;;;;;5072797;28;20157;-71
2022/03/24 09:54:17;;;;;;;9.25;3.78;;;24.20;59.80;;;;;;5072746;28;20226;-71
2022/03/24 09:56:43;;;;;;;9.35;3.65;;;24.20;59.60;;;;;;5072689;28;20215;-71
2022/03/24 09:59:11;;;;;;;8.88;3.30;;;24.80;60.00;;;;;;5072621;28;20219;-71
2022/03/24 10:01:41;;;;;;;13.35;3.40;;;24.90;57.30;;;;;;5071379;28;20176;-71
2022/03/24 10:04:10;;;;;;;6.30;3.55;;;25.10;58.00;;;;;;5072324;28;20202;-71
2022/03/24 10:06:39;;;;;;;6.35;3.35;;;24.50;58.10;;;;;;5072355;28;20209;-72
2022/03/24 10:09:06;;;;;;;10.88;2.75;;;24.80;58.70;;;;;;5072610;28;20222;-71
2022/03/24 10:11:35;;;;;;;5.78;2.53;;;25.00;57.10;;;;;;5072480;28;20527;-71
2022/03/24 10:14:01;;;;;;;3.13;2.20;;;24.90;54.50;;;;;;5053891;28;20203;-71
2022/03/24 10:16:33;;;;;;;4.97;2.00;;;25.40;53.00;;;;;;5072020;28;20188;-72
2022/03/24 10:19:14;;;;;;;2.63;1.80;;;25.10;52.40;;;;;;5072185;28;20168;-73
2022/03/24 10:21:43;;;;;;;2.75;1.77;;;25.00;51.00;;;;;;5072458;28;20526;-73
2022/03/24 10:24:12;;;;;;;3.85;2.15;;;25.00;52.00;;;;;;5072296;28;20207;-73
2022/03/24 10:26:46;;;;;;;6.07;2.58;;;25.40;51.60;;;;;;5071909;28;20204;-73
2022/03/24 10:29:16;;;;;;;3.97;2.13;;;25.30;51.50;;;;;;5072003;28;20160;-73
2022/03/24 10:31:43;;;;;;;4.70;2.28;;;25.40;53.10;;;;;;5054132;28;20172;-71
2022/03/24 10:34:11;;;;;;;2.40;1.92;;;25.50;50.80;;;;;;5071864;28;20226;-72
2022/03/24 10:36:41;;;;;;;2.60;2.08;;;25.00;51.10;;;;;;5071783;28;20218;-72
2022/03/24 10:39:09;;;;;;;2.80;1.95;;;25.30;51.30;;;;;;5071959;28;20175;-72
2022/03/24 10:41:37;;;;;;;6.45;2.35;;;24.60;53.10;;;;;;5071725;28;20156;-72
2022/03/24 10:44:12;;;;;;;3.47;1.73;;;24.40;53.90;;;;;;5053845;28;20180;-72
2022/03/24 10:46:44;;;;;;;4.47;2.22;;;24.10;54.20;;;;;;5071685;28;20199;-72
2022/03/24 10:49:29;;;;;;;3.03;1.58;;;24.30;54.20;;;;;;5071618;28;20190;-72
2022/03/24 10:51:56;;;;;;;4.88;1.95;;;23.60;52.70;;;;;;5071792;28;20156;-72
2022/03/24 10:54:28;;;;;;;5.35;1.80;;;23.20;53.80;;;;;;5071412;28;20206;-72
2022/03/24 10:57:04;;;;;;;6.25;2.10;;;23.40;53.20;;;;;;5071521;28;20195;-72
2022/03/24 10:59:39;;;;;;;2.50;1.77;;;23.80;52.20;;;;;;5070978;28;20310;-72
2022/03/24 11:02:05;;;;;;;3.22;1.90;;;23.60;52.60;;;;;;5071199;28;20175;-72
2022/03/24 11:04:32;;;;;;;2.42;1.70;;;23.80;53.20;;;;;;5071551;28;20246;-72
2022/03/24 11:06:57;;;;;;;2.90;1.67;;;24.50;53.00;;;;;;5071410;28;20227;-72
2022/03/24 11:09:34;;;;;;;2.42;1.80;;;25.10;52.60;;;;;;5071256;28;20179;-72
2022/03/24 11:12:21;;;;;;;4.05;1.48;;;25.50;50.40;;;;;;5053155;28;20175;-71
2022/03/24 11:14:50;;;;;;;3.25;1.77;;;24.70;50.90;;;;;;5071035;28;20200;-72
2022/03/24 11:17:17;;;;;;;4.60;1.60;;;25.10;51.00;;;;;;5053902;28;20522;-72
2022/03/24 11:20:11;;;;;;;3.25;2.40;;;25.70;51.00;;;;;;5070842;28;20163;-72
2022/03/24 11:22:48;;;;;;;3.47;1.65;;;26.30;49.80;;;;;;5054295;28;20211;-73
2022/03/24 11:25:17;;;;;;;3.67;1.38;;;25.30;50.80;;;;;;5070906;28;20563;-71
2022/03/24 11:27:44;;;;;;;3.17;1.70;;;24.60;50.90;;;;;;5071026;28;20190;-74
2022/03/24 11:30:12;;;;;;;2.95;1.50;;;24.20;51.30;;;;;;5071177;28;20160;-73
2022/03/24 11:32:41;;;;;;;5.03;1.70;;;24.80;51.10;;;;;;5071008;28;20181;-73
2022/03/24 11:35:08;;;;;;;3.38;2.47;;;26.10;49.80;;;;;;5070762;28;20212;-72
2022/03/24 11:37:34;;;;;;;3.38;1.65;;;26.50;50.40;;;;;;5070947;28;20168;-71
2022/03/24 11:40:13;;;;;;;2.70;1.80;;;26.40;47.70;;;;;;5052979;28;20199;-71
2022/03/24 11:42:52;;;;;;;2.08;1.48;;;26.40;48.80;;;;;;5070858;28;20210;-73
2022/03/24 11:45:19;;;;;;;2.58;1.25;;;26.20;49.60;;;;;;5070671;28;20207;-72
2022/03/24 11:48:03;;;;;;;3.25;1.92;;;26.70;48.80;;;;;;5070696;28;20156;-72
2022/03/24 11:50:41;;;;;;;8.80;2.17;;;25.50;48.70;;;;;;5070713;28;20157;-73
2022/03/24 11:53:39;;;;;;;2.45;1.50;;;25.70;48.70;;;;;;5052627;28;20222;-72
2022/03/24 11:56:05;;;;;;;4.05;1.60;;;25.50;48.60;;;;;;5070328;28;20200;-72
2022/03/24 11:58:32;;;;;;;2.40;1.70;;;24.80;49.90;;;;;;5070263;28;20568;-73
2022/03/24 12:01:19;;;;;;;3.92;1.73;;;25.30;51.60;;;;;;5070199;28;20175;-73
2022/03/24 12:03:48;;;;;;;6.15;2.00;;;26.60;48.40;;;;;;5053778;28;20192;-73
2022/03/24 12:06:16;;;;;;;4.88;1.88;;;27.60;48.20;;;;;;5069993;28;20302;-71
2022/03/24 12:09:01;;;;;;;1.90;1.52;;;27.80;47.30;;;;;;5070010;28;20160;-72
2022/03/24 12:11:33;;;;;;;2.17;1.50;;;27.50;49.00;;;;;;5069393;28;20165;-73
2022/03/24 12:14:20;;;;;;;5.65;1.90;;;27.50;46.70;;;;;;5069939;28;20188;-72
2022/03/24 12:16:48;;;;;;;2.00;1.40;;;28.00;48.10;;;;;;5069742;28;20184;-72
2022/03/24 12:19:35;;;;;;;1.80;1.40;;;27.20;48.30;;;;;;5070004;28;20162;-72
2022/03/24 12:22:20;;;;;;;2.97;1.38;;;26.20;47.60;;;;;;5069897;28;20152;-72
2022/03/24 12:24:46;;;;;;;1.80;1.25;;;26.20;49.20;;;;;;5069932;28;20168;-73
2022/03/24 12:27:15;;;;;;;4.40;1.77;;;26.30;48.40;;;;;;5070108;28;20160;-72
2022/03/24 12:29:41;;;;;;;4.40;1.67;;;25.80;51.20;;;;;;5069976;28;20215;-72
2022/03/24 12:32:10;;;;;;;2.38;1.83;;;24.40;50.90;;;;;;5069761;28;20160;-72
2022/03/24 12:34:39;;;;;;;8.10;1.80;;;23.10;52.00;;;;;;5051569;28;20206;-72
2022/03/24 12:37:06;;;;;;;1.58;1.40;;;22.20;51.50;;;;;;5069319;28;20216;-73
2022/03/24 12:39:37;;;;;;;3.08;1.50;;;21.90;53.50;;;;;;5069573;28;20156;-72
2022/03/24 12:42:11;;;;;;;5.65;1.65;;;21.90;54.90;;;;;;5069191;28;20574;-73
2022/03/24 12:44:57;;;;;;;3.05;2.15;;;22.00;54.00;;;;;;5069447;28;20157;-72
2022/03/24 12:47:38;;;;;;;3.30;1.60;;;21.90;53.00;;;;;;5052264;28;20180;-73
2022/03/24 12:50:09;;;;;;;3.72;1.73;;;21.90;54.60;;;;;;5069514;28;20171;-73